Japan Airlines Virtual Airport Information Service

Mexico City International Airport

ICAO: MMMX Country: Mexico
Latitude: 19.4363 Longitude: -99.072
Latest Arrival : AMX22 (LEMD-MMMX) Latest Departure : AMX5 (3) (MMMX-LFPG)


WX CaptureLIVE
Data provided by noaa.gov | Fetched at 15:50:01

METAR : MMMX 291452Z 36009KT 8SM SCT015 OVC070 14/11 A3044 NOSIG RMK SLP158 52025 924 8/57/ HZY LWR SC OCNL DROPS

TAF : MMMX 291100Z 2912/3018 02008KT 6SM HZ BKN020 OVC080 TX22/2921Z TN15/2912Z TEMPO 2912/2916 5SM -RA FM291800 03015KT 6SM HZ BKN020 OVC090 TEMPO 2918/2922 5SM RA FM292300 03010KT 6SM HZ BKN020 BKN090 FM300300 03010KT 6SM HZ SCT015 BKN080 TEMPO 3012/3015 BKN015 FM301600 03005KT 6SM HZ SCT015 BKN080


Runway Data for MMMX
Data provided by openaviationdata.com

Runway ID Mag Var Hdg Length Elevation Surface ILS Freq ILS Id ILS Slope
05L 7 52° 12966 ft 7314 ft Asphalt -- -- --
05R 7 52° 12795 ft 7314 ft Asphalt 109.1 IMWX 3
23L 7 232° 12795 ft 7314 ft Asphalt 109.7 IMEX 3
23R 7 232° 12966 ft 7314 ft Asphalt -- -- --

Mexico City International Airport, Mexico
Use only for reference purposes



Not for navigational purposes.